Time;durP1;ratioP1;P1;durP2;ratioP2;P2;SDS_P1;SDS_P2;PMS_P1;PMS_P2;Temp;Humidity;BMP_temperature;BMP_pressure;BME280_temperature;BME280_humidity;BME280_pressure;Samples;Min_cycle;Max_cycle;Signal;HPM_P1;HPM_P2
2021/01/27 00:00:55;;;;;;;33.40;20.60;;;102.60;1843.20;;;;;;4998567;28;20117;-72
2021/01/27 00:03:21;;;;;;;38.78;21.45;;;102.60;1843.20;;;;;;5016050;28;20073;-72
2021/01/27 00:05:50;;;;;;;39.25;22.13;;;102.60;1843.20;;;;;;4998315;28;20030;-71
2021/01/27 00:08:16;;;;;;;40.80;22.85;;;102.60;1843.20;;;;;;5016135;28;20026;-72
2021/01/27 00:10:42;;;;;;;38.13;22.52;;;102.60;1843.20;;;;;;5015836;28;20034;-72
2021/01/27 00:13:14;;;;;;;41.78;22.27;;;102.60;1843.20;;;;;;5015671;28;20502;-72
2021/01/27 00:15:42;;;;;;;39.85;22.77;;;102.60;1843.20;;;;;;5015738;28;20026;-72
2021/01/27 00:18:10;;;;;;;40.00;24.42;;;102.60;1843.20;;;;;;5015225;28;20041;-72
2021/01/27 00:20:36;;;;;;;45.08;24.27;;;102.60;1843.20;;;;;;5015728;28;20066;-72
2021/01/27 00:23:03;;;;;;;41.40;24.13;;;102.60;1843.20;;;;;;4997974;28;20037;-72
2021/01/27 00:25:31;;;;;;;38.80;24.15;;;102.60;1843.20;;;;;;5015286;28;20467;-72
2021/01/27 00:27:58;;;;;;;40.25;23.35;;;102.60;1843.20;;;;;;5015456;28;20472;-72
2021/01/27 00:30:31;;;;;;;46.28;24.17;;;102.60;1843.20;;;;;;5015548;28;20026;-72
2021/01/27 00:32:57;;;;;;;46.63;26.00;;;102.60;1843.20;;;;;;5015441;28;20116;-72
2021/01/27 00:35:34;;;;;;;50.40;26.83;;;102.60;1843.20;;;;;;5015018;28;20495;-72
2021/01/27 00:38:05;;;;;;;51.17;28.45;;;102.60;1843.20;;;;;;5015244;28;20072;-72
2021/01/27 00:40:31;;;;;;;63.15;29.65;;;102.60;1843.20;;;;;;4997563;28;20033;-72
2021/01/27 00:42:56;;;;;;;66.97;32.22;;;102.60;1843.20;;;;;;5015347;28;20038;-72
2021/01/27 00:45:22;;;;;;;62.08;31.85;;;102.60;1843.20;;;;;;5015337;28;20022;-73
2021/01/27 00:47:48;;;;;;;58.63;30.52;;;102.60;1843.20;;;;;;5015245;28;20488;-72
2021/01/27 00:50:15;;;;;;;48.63;27.58;;;102.60;1843.20;;;;;;5015288;28;20160;-72
2021/01/27 00:52:41;;;;;;;45.88;26.15;;;102.70;1843.20;;;;;;5015120;28;20022;-72
2021/01/27 00:55:13;;;;;;;42.67;25.15;;;102.70;1843.20;;;;;;5015098;28;20501;-71
2021/01/27 00:57:39;;;;;;;41.85;26.08;;;102.70;1843.20;;;;;;5014948;28;20460;-72
2021/01/27 01:00:14;;;;;;;47.33;26.98;;;102.70;1843.20;;;;;;5014722;28;20030;-71
2021/01/27 01:02:40;;;;;;;54.13;30.38;;;102.70;1843.20;;;;;;5014425;28;20056;-71
2021/01/27 01:05:13;;;;;;;43.35;24.58;;;102.70;1843.20;;;;;;5014925;28;20471;-72
2021/01/27 01:07:41;;;;;;;40.38;23.73;;;102.70;1843.20;;;;;;5014778;28;20456;-72
2021/01/27 01:10:07;;;;;;;37.80;23.63;;;102.70;1843.20;;;;;;5014793;28;20033;-71
2021/01/27 01:12:34;;;;;;;41.50;23.55;;;102.70;1843.20;;;;;;5014734;28;20384;-74
2021/01/27 01:15:00;;;;;;;40.78;23.45;;;102.70;1843.20;;;;;;5014579;28;20029;-71
2021/01/27 01:17:26;;;;;;;41.95;22.23;;;102.70;1843.20;;;;;;5014694;28;20026;-71
2021/01/27 01:19:51;;;;;;;40.05;23.92;;;102.80;1843.20;;;;;;5014759;28;20033;-71
2021/01/27 01:22:17;;;;;;;39.58;24.15;;;102.80;1843.20;;;;;;5014544;28;20461;-72
2021/01/27 01:24:43;;;;;;;36.33;23.05;;;102.80;1843.20;;;;;;5014259;28;20073;-72
2021/01/27 01:27:08;;;;;;;36.75;21.73;;;102.80;1843.20;;;;;;5014441;28;20079;-72
2021/01/27 01:29:34;;;;;;;36.25;22.42;;;102.80;1843.20;;;;;;5014096;28;20379;-71
2021/01/27 01:32:00;;;;;;;34.38;21.83;;;102.80;1843.20;;;;;;4996734;28;20026;-72
2021/01/27 01:34:25;;;;;;;40.10;23.60;;;102.80;1843.20;;;;;;5014448;28;20033;-71
2021/01/27 01:36:51;;;;;;;39.67;22.45;;;102.80;1843.20;;;;;;4996558;28;20034;-70
2021/01/27 01:39:17;;;;;;;34.50;21.00;;;102.80;1843.20;;;;;;4995533;28;20041;-71
2021/01/27 01:41:42;;;;;;;31.80;20.85;;;102.80;1843.20;;;;;;4996434;28;20040;-71
2021/01/27 01:44:08;;;;;;;31.52;19.73;;;102.80;1843.20;;;;;;4996857;28;20105;-75
2021/01/27 01:46:34;;;;;;;31.02;19.10;;;102.80;1843.20;;;;;;4996683;28;20369;-71
2021/01/27 01:49:05;;;;;;;32.45;19.63;;;102.80;1843.20;;;;;;5014183;28;20033;-74
2021/01/27 01:51:32;;;;;;;32.85;20.73;;;102.80;1843.20;;;;;;4996433;28;20028;-75
2021/01/27 01:54:13;;;;;;;30.88;18.30;;;102.80;1843.20;;;;;;5013951;28;20107;-72
2021/01/27 01:56:43;;;;;;;27.63;18.42;;;102.80;1843.20;;;;;;5014265;28;20022;-70
2021/01/27 01:59:11;;;;;;;27.80;17.70;;;102.80;1843.20;;;;;;4996345;28;20029;-74
2021/01/27 02:01:38;;;;;;;25.70;16.90;;;102.90;1843.20;;;;;;5013924;28;20479;-70
2021/01/27 02:04:04;;;;;;;31.88;17.60;;;102.90;1843.20;;;;;;5014018;28;20439;-74
2021/01/27 02:06:30;;;;;;;29.90;17.83;;;102.90;1843.20;;;;;;5014013;28;20054;-74
2021/01/27 02:08:58;;;;;;;28.55;17.88;;;102.80;1868.80;;;;;;5013846;28;20033;-71
2021/01/27 02:11:52;;;;;;;27.77;18.00;;;102.80;1868.80;;;;;;5014064;28;20392;-75
2021/01/27 02:14:43;;;;;;;25.70;16.80;;;102.80;1843.20;;;;;;5013995;28;20030;-75
2021/01/27 02:17:49;;;;;;;24.30;17.02;;;102.80;1868.80;;;;;;5013989;28;20267;-71
2021/01/27 02:20:34;;;;;;;23.92;16.65;;;102.80;1843.20;;;;;;4934337;28;20038;-71
2021/01/27 02:23:23;;;;;;;25.52;16.58;;;102.70;1843.20;;;;;;4934261;29;20453;-73
2021/01/27 02:26:50;;;;;;;25.60;17.15;;;102.70;1868.80;;;;;;4934252;29;20093;-73
2021/01/27 02:29:26;;;;;;;25.38;16.33;;;102.80;1843.20;;;;;;4877568;29;20036;-73
2021/01/27 02:32:08;;;;;;;23.85;16.02;;;102.80;1868.80;;;;;;4877542;29;20061;-71
2021/01/27 02:34:39;;;;;;;23.95;15.85;;;102.80;1843.20;;;;;;4862211;29;20033;-71
2021/01/27 02:37:12;;;;;;;28.00;18.02;;;102.70;1868.80;;;;;;4877683;29;20037;-71
2021/01/27 02:39:46;;;;;;;25.80;17.02;;;102.70;1868.80;;;;;;4877796;29;20069;-73
2021/01/27 02:42:37;;;;;;;29.20;18.58;;;102.70;1868.80;;;;;;4879262;29;20037;-71
2021/01/27 02:45:06;;;;;;;27.40;17.50;;;102.70;1868.80;;;;;;4844004;29;20038;-71
2021/01/27 02:47:42;;;;;;;28.48;17.02;;;102.70;1868.80;;;;;;4844343;29;20049;-73
2021/01/27 02:50:16;;;;;;;24.77;16.33;;;102.70;1868.80;;;;;;4844162;29;20044;-71
2021/01/27 02:52:48;;;;;;;26.92;17.08;;;102.70;1868.80;;;;;;4844193;29;20022;-73
2021/01/27 02:55:23;;;;;;;25.73;16.77;;;102.70;1868.80;;;;;;4843965;29;20147;-71
2021/01/27 02:58:02;;;;;;;25.13;16.38;;;102.70;1868.80;;;;;;4838469;29;20120;-72
2021/01/27 03:00:36;;;;;;;27.67;16.02;;;102.70;1868.80;;;;;;4843817;29;20392;-70
2021/01/27 03:03:15;;;;;;;27.35;16.73;;;102.70;1868.80;;;;;;4883068;29;20119;-74
2021/01/27 03:05:44;;;;;;;29.52;18.38;;;102.70;1868.80;;;;;;4937369;29;20442;-70
2021/01/27 03:08:21;;;;;;;26.50;17.15;;;102.70;1868.80;;;;;;4937439;29;20031;-73
2021/01/27 03:10:49;;;;;;;29.15;17.13;;;102.70;1868.80;;;;;;4921800;29;20355;-74
2021/01/27 03:13:15;;;;;;;31.23;19.27;;;102.70;1868.80;;;;;;4937570;29;20024;-70
2021/01/27 03:15:41;;;;;;;32.05;19.55;;;102.70;1868.80;;;;;;4937287;29;20047;-74
2021/01/27 03:18:12;;;;;;;32.08;18.85;;;102.70;1868.80;;;;;;4937305;29;20119;-73
2021/01/27 03:20:40;;;;;;;33.40;18.40;;;102.70;1868.80;;;;;;4937114;29;20035;-71
2021/01/27 03:23:14;;;;;;;28.30;18.45;;;102.60;1868.80;;;;;;5010430;28;20483;-70
2021/01/27 03:25:51;;;;;;;29.60;18.38;;;102.70;1868.80;;;;;;5016511;28;20041;-73
2021/01/27 03:28:28;;;;;;;32.72;17.90;;;102.70;1868.80;;;;;;5016711;28;20101;-70
2021/01/27 03:30:55;;;;;;;29.83;18.35;;;102.60;1868.80;;;;;;5016583;28;20049;-70
2021/01/27 03:33:29;;;;;;;29.08;18.48;;;102.60;1868.80;;;;;;5016803;28;20021;-72
2021/01/27 03:36:03;;;;;;;27.52;17.33;;;102.60;1868.80;;;;;;4999138;28;20026;-72
2021/01/27 03:38:39;;;;;;;25.57;16.60;;;102.60;1894.40;;;;;;4998895;28;20175;-70
2021/01/27 03:41:08;;;;;;;30.73;18.13;;;102.60;1868.80;;;;;;4998762;28;20314;-73
2021/01/27 03:43:57;;;;;;;34.67;20.00;;;102.70;1868.80;;;;;;5016538;28;20026;-70
2021/01/27 03:46:33;;;;;;;27.25;17.23;;;102.60;1894.40;;;;;;5016315;28;20072;-71
2021/01/27 03:49:07;;;;;;;28.20;17.27;;;102.60;1894.40;;;;;;5016136;28;20566;-74
2021/01/27 03:51:42;;;;;;;29.17;17.15;;;102.60;1894.40;;;;;;5016249;28;20030;-72
2021/01/27 03:54:15;;;;;;;27.58;17.48;;;102.60;1894.40;;;;;;4998065;28;20034;-80
2021/01/27 03:56:57;;;;;;;27.08;17.40;;;102.60;1894.40;;;;;;5016387;28;20026;-75
2021/01/27 03:59:23;;;;;;;28.77;16.42;;;102.60;1894.40;;;;;;5016056;28;20491;-71
2021/01/27 04:01:54;;;;;;;26.05;15.93;;;102.60;1920.00;;;;;;5016141;28;20034;-71
2021/01/27 04:04:21;;;;;;;27.48;16.05;;;102.60;1920.00;;;;;;5015562;28;20472;-76
2021/01/27 04:06:47;;;;;;;26.67;16.20;;;102.60;1920.00;;;;;;5016124;28;20030;-71
2021/01/27 04:09:13;;;;;;;23.60;14.93;;;102.60;1920.00;;;;;;5016022;28;20030;-72
2021/01/27 04:11:39;;;;;;;25.63;15.25;;;102.60;1920.00;;;;;;5015984;28;20030;-75
2021/01/27 04:14:06;;;;;;;31.88;21.77;;;102.60;1920.00;;;;;;5015781;28;20044;-72
2021/01/27 04:16:32;;;;;;;31.33;19.98;;;102.60;1945.60;;;;;;5015921;28;20059;-73
2021/01/27 04:19:00;;;;;;;25.00;15.63;;;102.60;1945.60;;;;;;5015864;28;20092;-75
2021/01/27 04:21:26;;;;;;;21.80;13.73;;;102.60;1920.00;;;;;;5015920;28;20121;-74
2021/01/27 04:23:52;;;;;;;23.10;14.27;;;102.60;1945.60;;;;;;5015089;28;20468;-74
2021/01/27 04:26:20;;;;;;;20.10;12.60;;;102.60;1945.60;;;;;;5015663;28;20107;-72
2021/01/27 04:28:48;;;;;;;18.17;12.32;;;102.60;1920.00;;;;;;5015890;28;20026;-75
2021/01/27 04:31:15;;;;;;;17.02;11.93;;;102.60;1920.00;;;;;;4997730;28;20085;-75
2021/01/27 04:33:40;;;;;;;21.58;13.38;;;102.60;1945.60;;;;;;5015582;28;20484;-72
2021/01/27 04:36:07;;;;;;;28.75;15.85;;;102.60;1920.00;;;;;;5015406;28;20029;-73
2021/01/27 04:38:33;;;;;;;47.85;21.95;;;102.60;1945.60;;;;;;5015323;28;20026;-73
2021/01/27 04:40:59;;;;;;;60.00;27.90;;;102.60;1945.60;;;;;;5015396;28;20040;-75
2021/01/27 04:43:36;;;;;;;61.40;29.42;;;102.60;1945.60;;;;;;5015362;28;20029;-75
2021/01/27 04:46:15;;;;;;;64.00;30.48;;;102.60;1945.60;;;;;;5015100;28;20029;-74
2021/01/27 04:48:50;;;;;;;52.03;22.90;;;102.60;1945.60;;;;;;5015374;28;20097;-74
2021/01/27 04:51:19;;;;;;;;;;;102.70;1945.60;;;;;;5015713;28;20030;-75
2021/01/27 04:53:58;;;;;;;40.65;18.30;;;102.70;1945.60;;;;;;5014898;28;19939;-73
2021/01/27 04:56:49;;;;;;;36.33;18.45;;;102.60;1945.60;;;;;;5015071;28;20534;-72
2021/01/27 04:59:35;;;;;;;41.42;16.73;;;102.70;1945.60;;;;;;4997152;28;20464;-72
2021/01/27 05:02:25;;;;;;;35.35;16.15;;;102.70;1945.60;;;;;;5014440;28;20038;-72
2021/01/27 05:05:14;;;;;;;39.40;16.52;;;102.70;1971.20;;;;;;5013668;28;20048;-75
2021/01/27 05:07:43;;;;;;;31.25;15.73;;;102.70;1945.60;;;;;;5014693;28;20022;-73
2021/01/27 05:10:13;;;;;;;36.20;15.77;;;102.70;1945.60;;;;;;5014992;28;20069;-72
2021/01/27 05:12:48;;;;;;;35.78;16.63;;;102.70;1945.60;;;;;;5014873;28;20026;-72
2021/01/27 05:15:14;;;;;;;38.80;16.98;;;102.80;1945.60;;;;;;4997076;28;20026;-75
2021/01/27 05:17:42;;;;;;;32.13;17.52;;;102.80;1945.60;;;;;;5014493;28;20026;-72
2021/01/27 05:20:10;;;;;;;39.45;19.90;;;102.80;1945.60;;;;;;5014323;28;20452;-72
2021/01/27 05:22:36;;;;;;;45.58;20.77;;;102.80;1945.60;;;;;;5014431;28;20125;-74
2021/01/27 05:25:06;;;;;;;50.97;22.70;;;102.80;1945.60;;;;;;5014258;28;20129;-73
2021/01/27 05:27:35;;;;;;;43.75;22.52;;;102.80;1945.60;;;;;;4997115;28;20034;-74
2021/01/27 05:30:14;;;;;;;44.50;21.00;;;102.80;1945.60;;;;;;5014232;28;20434;-73
2021/01/27 05:32:51;;;;;;;42.25;19.90;;;102.80;1945.60;;;;;;5014303;28;20060;-72
2021/01/27 05:35:31;;;;;;;58.13;24.05;;;102.80;1945.60;;;;;;5014187;28;20057;-74
2021/01/27 05:38:00;;;;;;;47.60;25.27;;;102.80;1945.60;;;;;;5014433;28;20022;-75
2021/01/27 05:40:34;;;;;;;49.55;24.85;;;102.80;1945.60;;;;;;5014408;28;20075;-73
2021/01/27 05:43:30;;;;;;;40.00;22.05;;;102.80;1945.60;;;;;;5014211;28;20034;-73
2021/01/27 05:46:31;;;;;;;43.30;23.52;;;102.80;1945.60;;;;;;5014461;28;20049;-75
2021/01/27 05:48:58;;;;;;;74.55;37.60;;;102.80;1945.60;;;;;;4918720;29;20094;-74
2021/01/27 05:51:32;;;;;;;78.38;34.92;;;102.70;1971.20;;;;;;4934746;29;20035;-73
2021/01/27 05:53:59;;;;;;;64.80;30.83;;;102.70;1971.20;;;;;;4918722;29;20036;-75
2021/01/27 05:56:30;;;;;;;51.55;25.73;;;102.80;1945.60;;;;;;4934623;29;20032;-74
2021/01/27 05:59:02;;;;;;;70.78;31.92;;;102.80;1945.60;;;;;;4934554;29;20024;-74
2021/01/27 06:01:37;;;;;;;87.38;39.35;;;102.70;1945.60;;;;;;4934302;29;20050;-72
2021/01/27 06:04:08;;;;;;;98.93;42.42;;;102.70;1971.20;;;;;;4934490;29;20394;-72
2021/01/27 06:06:36;;;;;;;83.80;37.92;;;102.70;1971.20;;;;;;4918537;29;20470;-73
2021/01/27 06:09:05;;;;;;;59.10;28.83;;;102.70;1971.20;;;;;;4934512;29;20024;-75
2021/01/27 06:11:31;;;;;;;48.90;22.05;;;102.70;1971.20;;;;;;4934483;29;20020;-72
2021/01/27 06:14:07;;;;;;;41.33;21.38;;;102.70;1971.20;;;;;;4918365;29;20035;-72
2021/01/27 06:16:45;;;;;;;48.67;24.15;;;102.70;1971.20;;;;;;4936655;29;20158;-72
2021/01/27 06:19:26;;;;;;;46.92;24.75;;;102.70;1971.20;;;;;;4938480;29;20031;-73
2021/01/27 06:22:06;;;;;;;49.65;27.05;;;102.70;1971.20;;;;;;4938191;29;20509;-73
2021/01/27 06:24:44;;;;;;;62.25;33.05;;;102.60;1971.20;;;;;;4938000;29;20493;-75
2021/01/27 06:27:41;;;;;;;58.72;35.10;;;102.60;1971.20;;;;;;5000061;28;20034;-72
2021/01/27 06:30:28;;;;;;;72.88;44.15;;;102.60;1971.20;;;;;;5017860;28;20025;-75
2021/01/27 06:32:59;;;;;;;88.93;47.95;;;102.60;1971.20;;;;;;5017847;28;20472;-74
2021/01/27 06:35:31;;;;;;;100.40;49.53;;;102.60;1971.20;;;;;;5017841;28;20030;-72
2021/01/27 06:38:29;;;;;;;88.85;44.08;;;102.60;1971.20;;;;;;5017732;28;20022;-73
2021/01/27 06:40:55;;;;;;;79.50;39.08;;;102.50;1971.20;;;;;;5012463;28;20053;-75
2021/01/27 06:43:30;;;;;;;69.55;33.70;;;102.50;1971.20;;;;;;5017640;28;20360;-75
2021/01/27 06:46:17;;;;;;;67.70;32.05;;;102.50;1971.20;;;;;;4999516;28;20045;-73
2021/01/27 06:49:01;;;;;;;88.70;39.55;;;102.50;1971.20;;;;;;5017578;28;20050;-72
2021/01/27 06:51:56;;;;;;;228.50;68.70;;;102.40;1971.20;;;;;;5017534;28;20030;-72
2021/01/27 06:54:33;;;;;;;160.55;58.22;;;102.40;1971.20;;;;;;4938140;29;20040;-72
2021/01/27 06:57:26;;;;;;;105.90;46.67;;;102.40;1971.20;;;;;;4937866;29;20082;-75
2021/01/27 07:00:27;;;;;;;77.45;36.53;;;102.40;1971.20;;;;;;4937602;29;20035;-72
2021/01/27 07:03:04;;;;;;;82.00;41.25;;;77.70;1971.20;;;;;;4937407;29;20036;-75
2021/01/27 07:06:09;;;;;;;79.82;41.05;;;77.70;1971.20;;;;;;4937569;28;20051;-75
2021/01/27 07:08:46;;;;;;;85.50;41.05;;;77.70;1971.20;;;;;;4937614;29;20024;-75
2021/01/27 07:11:37;;;;;;;84.32;39.97;;;77.70;1971.20;;;;;;4937419;28;20036;-74
2021/01/27 07:14:06;;;;;;;80.38;37.42;;;77.60;1971.20;;;;;;4899619;29;20084;-72
2021/01/27 07:16:41;;;;;;;87.28;41.22;;;77.60;1996.80;;;;;;4899571;29;20036;-76
2021/01/27 07:19:09;;;;;;;88.45;43.17;;;77.60;1996.80;;;;;;4899453;29;20056;-73
2021/01/27 07:21:44;;;;;;;78.88;40.33;;;77.70;1971.20;;;;;;4899513;29;20045;-72
2021/01/27 07:24:17;;;;;;;;;;;77.60;1996.80;;;;;;4883707;29;20483;-75
2021/01/27 07:26:59;;;;;;;57.17;32.17;;;77.70;1971.20;;;;;;4899101;29;19930;-74
2021/01/27 07:29:38;;;;;;;48.75;29.02;;;77.60;1971.20;;;;;;4899144;29;20456;-75
2021/01/27 07:32:11;;;;;;;40.40;25.50;;;77.60;1971.20;;;;;;4944304;29;20046;-72
2021/01/27 07:45:03;;;;;;;40.47;24.35;;;77.70;1971.20;;;;;;4955988;28;20032;-72
2021/01/27 07:47:45;;;;;;;33.90;21.63;;;77.70;1971.20;;;;;;4956690;29;20032;-73
2021/01/27 08:00:39;;;;;;;42.78;25.60;;;77.70;1971.20;;;;;;5015456;28;20030;-76
2021/01/27 08:03:19;;;;;;;50.97;29.23;;;77.70;1971.20;;;;;;5016190;28;20034;-73
2021/01/27 08:16:16;;;;;;;40.15;24.05;;;102.40;1945.60;;;;;;5014976;28;20383;-75
2021/01/27 08:19:07;;;;;;;46.45;25.02;;;102.40;1945.60;;;;;;5015878;28;20117;-73
2021/01/27 08:29:36;;;;;;;37.45;24.00;;;102.50;1945.60;;;;;;5032114;28;20053;-72
2021/01/27 08:32:35;;;;;;;37.33;23.08;;;102.50;1945.60;;;;;;5015489;28;20033;-75
2021/01/27 08:45:22;;;;;;;41.75;26.45;;;102.90;1920.00;;;;;;5015206;28;20029;-75
2021/01/27 08:47:51;;;;;;;38.28;24.63;;;103.10;1894.40;;;;;;5015089;28;20022;-74
2021/01/27 09:00:35;;;;;;;33.58;22.45;;;128.30;1843.20;;;;;;5015058;28;20022;-75
2021/01/27 09:03:02;;;;;;;36.17;22.70;;;128.40;1843.20;;;;;;5014985;28;20435;-72
2021/01/27 09:15:52;;;;;;;40.65;26.20;;;128.70;1792.00;;;;;;5014767;28;20030;-75
2021/01/27 09:18:18;;;;;;;37.88;23.50;;;128.80;1792.00;;;;;;5014614;28;20037;-72
2021/01/27 09:31:12;;;;;;;50.42;29.98;;;153.90;1740.80;;;;;;5014412;28;20046;-74
2021/01/27 09:33:37;;;;;;;45.13;26.95;;;153.90;1715.20;;;;;;5014554;28;20416;-73
2021/01/27 09:46:35;;;;;;;37.45;25.02;;;154.10;1689.60;;;;;;5013227;28;20057;-72
2021/01/27 09:49:11;;;;;;;35.28;24.88;;;154.20;1664.00;;;;;;4995760;28;20112;-74
2021/01/27 09:59:19;;;;;;;35.40;23.33;;;179.30;1612.80;;;;;;5013321;28;20100;-72
2021/01/27 10:01:47;;;;;;;36.80;22.33;;;179.40;1612.80;;;;;;5013979;28;20037;-72
2021/01/27 10:14:35;;;;;;;29.80;20.45;;;179.90;1536.00;;;;;;4934994;28;20501;-74
2021/01/27 10:17:09;;;;;;;31.58;20.83;;;180.00;1510.40;;;;;;4934535;29;20024;-72
2021/01/27 10:29:53;;;;;;;36.67;23.55;;;205.00;1484.80;;;;;;4930124;28;20103;-74
2021/01/27 10:32:40;;;;;;;35.90;24.20;;;205.00;1484.80;;;;;;4899541;29;20029;-72
2021/01/27 10:45:37;;;;;;;37.40;23.42;;;205.20;1459.20;;;;;;4992944;28;20456;-74
2021/01/27 10:48:03;;;;;;;38.90;24.85;;;205.00;1433.60;;;;;;4976444;28;20472;-74
2021/01/27 11:00:47;;;;;;;30.38;20.27;;;205.00;1433.60;;;;;;4993867;28;20073;-74
2021/01/27 11:03:14;;;;;;;28.45;19.52;;;205.00;1433.60;;;;;;4995527;28;20030;-72
2021/01/27 11:16:00;;;;;;;38.22;24.02;;;205.10;1433.60;;;;;;4997479;28;20045;-72
2021/01/27 11:18:26;;;;;;;37.00;23.02;;;205.20;1433.60;;;;;;4979947;28;20022;-72
2021/01/27 17:55:29;;;;;;;33.88;19.75;;;77.60;1920.00;;;;;;5294623;23;20056;-73
2021/01/27 17:57:55;;;;;;;36.75;21.40;;;77.60;1920.00;;;;;;5033746;28;20143;-73
2021/01/27 18:00:26;;;;;;;41.50;23.40;;;77.50;1920.00;;;;;;5035727;28;20111;-73
2021/01/27 18:02:56;;;;;;;40.58;23.00;;;77.50;1945.60;;;;;;5053383;28;20041;-73
2021/01/27 18:05:27;;;;;;;34.40;22.33;;;77.50;1945.60;;;;;;5035245;28;20037;-73
2021/01/27 18:07:53;;;;;;;40.20;23.17;;;77.50;1945.60;;;;;;5053655;28;20029;-73
2021/01/27 18:10:20;;;;;;;41.35;23.65;;;77.60;1920.00;;;;;;5053018;28;20028;-73
2021/01/27 18:12:46;;;;;;;41.47;24.27;;;77.60;1920.00;;;;;;5053359;28;20028;-73
2021/01/27 18:15:16;;;;;;;41.40;22.13;;;77.60;1920.00;;;;;;5053508;28;20025;-73
2021/01/27 18:17:42;;;;;;;32.90;19.98;;;77.60;1920.00;;;;;;5053251;28;20420;-74
2021/01/27 18:20:10;;;;;;;32.63;18.92;;;77.60;1920.00;;;;;;5053468;28;20056;-74
2021/01/27 18:22:35;;;;;;;31.42;18.95;;;77.60;1920.00;;;;;;5052735;28;20083;-73
2021/01/27 18:25:02;;;;;;;31.25;18.65;;;77.60;1920.00;;;;;;5053546;28;20490;-73
2021/01/27 18:27:28;;;;;;;35.45;20.25;;;77.60;1920.00;;;;;;5052300;28;20029;-74
2021/01/27 18:29:54;;;;;;;34.53;19.70;;;77.60;1920.00;;;;;;5052773;28;20025;-73
2021/01/27 18:32:20;;;;;;;36.15;19.98;;;77.60;1920.00;;;;;;5052178;28;20033;-72
2021/01/27 18:34:46;;;;;;;35.83;22.10;;;77.60;1920.00;;;;;;5052503;28;20025;-68
2021/01/27 18:37:11;;;;;;;32.67;20.33;;;77.50;1920.00;;;;;;5048834;28;20040;-69
2021/01/27 18:39:37;;;;;;;33.65;19.33;;;77.50;1894.40;;;;;;5053294;28;20025;-73
2021/01/27 18:42:04;;;;;;;35.58;20.25;;;77.60;1920.00;;;;;;5051076;28;20435;-72
2021/01/27 18:44:30;;;;;;;51.38;25.38;;;77.60;1920.00;;;;;;5050608;28;20044;-69
2021/01/27 18:46:56;;;;;;;43.63;23.58;;;77.60;1894.40;;;;;;5053138;28;20049;-69
2021/01/27 18:49:21;;;;;;;38.03;22.52;;;77.60;1894.40;;;;;;5051911;28;20072;-68
2021/01/27 18:51:47;;;;;;;40.88;20.10;;;77.60;1894.40;;;;;;5053141;28;20094;-69
2021/01/27 18:54:13;;;;;;;34.83;20.77;;;77.60;1894.40;;;;;;5053017;28;20120;-69
2021/01/27 18:56:39;;;;;;;36.47;20.33;;;77.60;1894.40;;;;;;5041915;28;20053;-71
2021/01/27 18:59:05;;;;;;;36.10;20.15;;;77.60;1868.80;;;;;;5037536;28;20499;-70
2021/01/27 19:01:31;;;;;;;44.15;24.75;;;77.50;1868.80;;;;;;5051856;28;20120;-68
2021/01/27 19:03:57;;;;;;;45.30;23.70;;;77.50;1868.80;;;;;;5053057;28;20053;-68
2021/01/27 19:06:23;;;;;;;42.30;24.17;;;77.50;1868.80;;;;;;5052981;28;20086;-70
2021/01/27 19:08:50;;;;;;;45.70;24.50;;;77.50;1868.80;;;;;;5052592;28;20036;-69
2021/01/27 19:11:16;;;;;;;41.97;23.20;;;77.50;1868.80;;;;;;5053176;28;20062;-71
2021/01/27 19:13:42;;;;;;;43.40;24.50;;;77.50;1868.80;;;;;;5053259;28;20029;-69
2021/01/27 19:16:08;;;;;;;47.60;26.27;;;77.40;1894.40;;;;;;5052869;28;20428;-71
2021/01/27 19:18:35;;;;;;;55.22;31.15;;;77.50;1868.80;;;;;;5052856;28;20052;-70
2021/01/27 19:21:00;;;;;;;59.33;31.80;;;77.50;1868.80;;;;;;5052795;28;20029;-69
2021/01/27 19:23:26;;;;;;;58.95;32.75;;;77.40;1868.80;;;;;;5052538;28;20099;-71
2021/01/27 19:25:52;;;;;;;59.65;33.05;;;77.40;1894.40;;;;;;5055861;28;20025;-69
2021/01/27 19:28:18;;;;;;;57.83;30.65;;;77.40;1894.40;;;;;;5037034;28;20045;-70
2021/01/27 19:30:44;;;;;;;46.80;27.15;;;77.40;1894.40;;;;;;5056350;28;20025;-69
2021/01/27 19:33:11;;;;;;;49.88;27.90;;;77.40;1894.40;;;;;;5056447;28;20029;-71
2021/01/27 19:35:40;;;;;;;50.63;27.02;;;77.40;1894.40;;;;;;5054558;28;20025;-69
2021/01/27 19:38:08;;;;;;;64.90;32.17;;;77.40;1894.40;;;;;;5051448;28;20042;-70
2021/01/27 19:40:35;;;;;;;73.47;35.60;;;77.40;1894.40;;;;;;5056405;28;20056;-71
2021/01/27 19:43:02;;;;;;;73.57;34.45;;;77.30;1894.40;;;;;;5056307;28;20428;-69
2021/01/27 19:45:30;;;;;;;69.80;33.28;;;77.30;1894.40;;;;;;5055230;28;20052;-69
2021/01/27 19:47:57;;;;;;;63.75;32.88;;;77.30;1920.00;;;;;;5055953;28;20029;-71
2021/01/27 19:50:25;;;;;;;63.95;33.15;;;77.30;1894.40;;;;;;5056006;28;20040;-71
2021/01/27 19:52:51;;;;;;;66.68;32.17;;;77.30;1920.00;;;;;;5055391;28;20032;-71
2021/01/27 19:55:20;;;;;;;55.20;29.15;;;77.30;1894.40;;;;;;5055801;28;20040;-70
2021/01/27 19:57:47;;;;;;;53.92;27.58;;;77.30;1920.00;;;;;;5054591;28;20408;-70
2021/01/27 20:00:16;;;;;;;51.33;26.55;;;77.30;1920.00;;;;;;5055457;28;20104;-69
2021/01/27 20:02:41;;;;;;;46.97;24.23;;;77.20;1920.00;;;;;;5037827;28;20091;-71
2021/01/27 20:05:09;;;;;;;38.35;21.73;;;77.20;1920.00;;;;;;5054428;28;20056;-69
2021/01/27 20:07:35;;;;;;;37.55;20.15;;;77.20;1894.40;;;;;;5045021;28;20390;-70
2021/01/27 20:10:01;;;;;;;42.55;22.63;;;77.20;1920.00;;;;;;5044188;28;20018;-69
2021/01/27 20:12:27;;;;;;;42.95;21.65;;;77.20;1920.00;;;;;;5045796;28;20103;-69
2021/01/27 20:14:52;;;;;;;47.42;22.65;;;77.20;1894.40;;;;;;5046080;28;20020;-70
2021/01/27 20:17:18;;;;;;;45.78;22.63;;;77.20;1894.40;;;;;;5044830;28;20041;-69
2021/01/27 20:19:44;;;;;;;43.13;22.65;;;77.20;1920.00;;;;;;5045284;28;20025;-69
2021/01/27 20:22:09;;;;;;;51.67;26.08;;;77.20;1920.00;;;;;;5048456;28;20037;-70
2021/01/27 20:24:35;;;;;;;43.92;22.58;;;77.20;1920.00;;;;;;5055586;28;20040;-70
2021/01/27 20:27:01;;;;;;;37.78;20.30;;;77.20;1920.00;;;;;;5055841;28;20468;-70
2021/01/27 20:29:27;;;;;;;34.67;19.77;;;77.20;1920.00;;;;;;5055458;28;20421;-70
2021/01/27 20:31:53;;;;;;;31.42;19.15;;;77.10;1920.00;;;;;;5055525;28;20040;-71
2021/01/27 20:34:20;;;;;;;30.85;17.95;;;77.10;1920.00;;;;;;5055301;28;20118;-69
2021/01/27 20:36:46;;;;;;;30.25;17.50;;;77.10;1920.00;;;;;;5055282;28;20025;-70
2021/01/27 20:39:12;;;;;;;28.83;17.90;;;77.20;1920.00;;;;;;5055342;28;20031;-69
2021/01/27 20:41:39;;;;;;;32.17;17.55;;;77.20;1920.00;;;;;;5055096;28;20033;-71
2021/01/27 20:44:05;;;;;;;28.60;17.25;;;77.10;1920.00;;;;;;5055311;28;20029;-70
2021/01/27 20:46:31;;;;;;;27.15;16.85;;;77.10;1920.00;;;;;;5054958;28;20477;-70
2021/01/27 20:48:57;;;;;;;29.02;16.50;;;77.10;1920.00;;;;;;5054648;28;20037;-70
2021/01/27 20:51:23;;;;;;;28.05;15.95;;;77.10;1920.00;;;;;;5055222;28;20029;-70
2021/01/27 20:53:50;;;;;;;24.52;15.27;;;77.10;1920.00;;;;;;5055081;28;20466;-69
2021/01/27 20:56:17;;;;;;;28.70;16.58;;;77.10;1920.00;;;;;;5054767;28;20036;-69
2021/01/27 20:58:43;;;;;;;26.75;16.40;;;77.10;1920.00;;;;;;5053506;28;20033;-69
2021/01/27 21:01:17;;;;;;;29.35;16.25;;;77.10;1894.40;;;;;;5054892;28;20450;-69
2021/01/27 21:03:44;;;;;;;29.83;17.03;;;77.10;1920.00;;;;;;5054714;28;20044;-69
2021/01/27 21:06:10;;;;;;;26.27;16.50;;;77.00;1920.00;;;;;;5053507;28;20056;-69
2021/01/27 21:08:36;;;;;;;30.85;17.15;;;77.00;1920.00;;;;;;5054058;28;20037;-70
2021/01/27 21:11:02;;;;;;;48.83;26.95;;;77.00;1920.00;;;;;;5043489;28;20029;-70
2021/01/27 21:13:28;;;;;;;40.33;22.63;;;77.10;1920.00;;;;;;5034594;28;20418;-70
2021/01/27 21:15:54;;;;;;;37.78;22.30;;;77.00;1920.00;;;;;;5034540;28;20025;-69
2021/01/27 21:18:23;;;;;;;35.13;19.15;;;77.00;1920.00;;;;;;5034461;28;20582;-70
2021/01/27 21:20:48;;;;;;;31.48;18.27;;;77.00;1894.40;;;;;;5034290;28;20033;-70
2021/01/27 21:23:16;;;;;;;29.98;17.75;;;77.00;1894.40;;;;;;5034463;28;20099;-69
2021/01/27 21:25:42;;;;;;;39.55;18.05;;;77.00;1894.40;;;;;;5034191;28;20029;-71
2021/01/27 21:28:08;;;;;;;39.40;19.58;;;77.00;1894.40;;;;;;5034038;28;20442;-71